Time;durP1;ratioP1;P1;durP2;ratioP2;P2;SDS_P1;SDS_P2;PMS_P1;PMS_P2;Temp;Humidity;BMP_temperature;BMP_pressure;BME280_temperature;BME280_humidity;BME280_pressure;Samples;Min_cycle;Max_cycle;Signal;HPM_P1;HPM_P2
2021/07/23 00:00:55;;;;;;;9.80;5.78;;;;;;;;;;1491186;39;20458;-80
2021/07/23 00:01:58;;;;;;;8.02;5.85;;;;;;;;;;1488106;40;21254;-77
2021/07/23 00:03:00;;;;;;;6.97;5.30;;;;;;;;;;1486599;40;20442;-78
2021/07/23 00:04:02;;;;;;;8.45;5.00;;;;;;;;;;1487161;39;20848;-78
2021/07/23 00:05:06;;;;;;;8.63;5.35;;;;;;;;;;1486820;39;20387;-79
2021/07/23 00:06:08;;;;;;;6.97;5.28;;;;;;;;;;1486716;40;20414;-80
2021/07/23 00:07:09;;;;;;;11.00;5.95;;;;;;;;;;1487006;39;20503;-79
2021/07/23 00:08:11;;;;;;;9.73;5.10;;;;;;;;;;1486219;40;20442;-80
2021/07/23 00:09:12;;;;;;;7.88;5.40;;;;;;;;;;1486171;40;20430;-80
2021/07/23 00:10:14;;;;;;;8.48;5.85;;;;;;;;;;1485721;40;20513;-80
2021/07/23 00:11:15;;;;;;;8.25;5.18;;;;;;;;;;1482125;40;20709;-81
2021/07/23 00:12:17;;;;;;;8.60;5.15;;;;;;;;;;1486066;40;20422;-79
2021/07/23 00:13:19;;;;;;;9.63;5.50;;;;;;;;;;1486607;39;20650;-79
2021/07/23 00:14:20;;;;;;;8.93;5.13;;;;;;;;;;1485565;40;20488;-79
2021/07/23 00:15:22;;;;;;;8.55;5.35;;;;;;;;;;1485688;40;20413;-79
2021/07/23 00:16:24;;;;;;;7.63;4.68;;;;;;;;;;1486651;39;20386;-80
2021/07/23 00:17:25;;;;;;;7.60;5.10;;;;;;;;;;1485871;39;20991;-80
2021/07/23 00:18:27;;;;;;;7.88;4.88;;;;;;;;;;1486528;39;20407;-79
2021/07/23 00:19:28;;;;;;;7.97;5.03;;;;;;;;;;1486176;40;20446;-78
2021/07/23 00:20:30;;;;;;;8.45;5.35;;;;;;;;;;1481872;40;20457;-80
2021/07/23 00:21:32;;;;;;;8.00;5.32;;;;;;;;;;1477699;40;20445;-80
2021/07/23 00:22:33;;;;;;;10.60;6.05;;;;;;;;;;1481756;40;20773;-79
2021/07/23 00:23:35;;;;;;;8.73;4.95;;;;;;;;;;1486091;40;20395;-80
2021/07/23 00:24:37;;;;;;;9.93;5.68;;;;;;;;;;1485781;40;20407;-80
2021/07/23 00:25:38;;;;;;;8.55;5.20;;;;;;;;;;1485648;40;20415;-80
2021/07/23 00:26:40;;;;;;;7.78;5.03;;;;;;;;;;1486554;39;20483;-80
2021/07/23 00:27:41;;;;;;;6.25;5.28;;;;;;;;;;1481725;40;20396;-79
2021/07/23 00:28:43;;;;;;;10.45;5.75;;;;;;;;;;1484394;40;20572;-79
2021/07/23 00:29:45;;;;;;;7.20;5.65;;;;;;;;;;1487534;39;20527;-91
2021/07/23 00:30:47;;;;;;;7.47;4.68;;;;;;;;;;1487053;39;20414;-80
2021/07/23 00:31:48;;;;;;;7.25;4.85;;;;;;;;;;1489251;39;20790;-82
2021/07/23 00:32:50;;;;;;;6.95;5.05;;;;;;;;;;1485543;39;20411;-80
2021/07/23 00:33:52;;;;;;;6.88;5.07;;;;;;;;;;1490319;39;20396;-81
2021/07/23 00:34:53;;;;;;;9.65;6.00;;;;;;;;;;1488495;39;20841;-82
2021/07/23 00:35:55;;;;;;;7.25;5.53;;;;;;;;;;1486959;39;20417;-82
2021/07/23 00:36:56;;;;;;;6.88;5.53;;;;;;;;;;1484785;40;20442;-82
2021/07/23 00:37:58;;;;;;;10.07;5.32;;;;;;;;;;1481503;40;20539;-81
2021/07/23 00:39:00;;;;;;;8.98;5.70;;;;;;;;;;1485467;39;20515;-81
2021/07/23 00:40:02;;;;;;;9.80;5.60;;;;;;;;;;1477139;40;20473;-81
2021/07/23 00:41:03;;;;;;;9.95;5.72;;;;;;;;;;1475484;40;20906;-81
2021/07/23 00:42:05;;;;;;;7.28;5.35;;;;;;;;;;1487125;39;20417;-80
2021/07/23 00:43:06;;;;;;;6.30;4.78;;;;;;;;;;1484703;39;20798;-82
2021/07/23 00:44:08;;;;;;;9.07;5.60;;;;;;;;;;1484524;40;20822;-81
2021/07/23 00:45:10;;;;;;;8.90;5.72;;;;;;;;;;1483726;40;20442;-82
2021/07/23 00:46:12;;;;;;;8.85;5.20;;;;;;;;;;1484464;40;20434;-82
2021/07/23 00:47:20;;;;;;;7.68;5.13;;;;;;;;;;1485364;40;20532;-81
2021/07/23 00:48:23;;;;;;;5.80;4.70;;;;;;;;;;1488899;39;20511;-81
2021/07/23 00:49:24;;;;;;;8.02;5.75;;;;;;;;;;1485603;39;20402;-81
2021/07/23 00:50:30;;;;;;;6.85;5.40;;;;;;;;;;1488377;39;20413;-80
2021/07/23 00:51:32;;;;;;;8.32;5.35;;;;;;;;;;1484792;39;20467;-82
2021/07/23 00:52:34;;;;;;;9.45;5.40;;;;;;;;;;1489071;39;20377;-80
2021/07/23 00:53:36;;;;;;;6.80;5.00;;;;;;;;;;1487512;39;20398;-82
2021/07/23 00:54:38;;;;;;;5.97;4.28;;;;;;;;;;1487547;39;20526;-82
2021/07/23 00:55:41;;;;;;;8.95;5.60;;;;;;;;;;1488675;39;20424;-82
2021/07/23 00:56:42;;;;;;;6.65;5.13;;;;;;;;;;1489609;39;20408;-82
2021/07/23 00:57:45;;;;;;;8.65;6.20;;;;;;;;;;1488039;39;20405;-82
2021/07/23 00:58:46;;;;;;;8.93;5.40;;;;;;;;;;1486747;39;20403;-82
2021/07/23 00:59:48;;;;;;;7.60;5.38;;;;;;;;;;1488942;39;20413;-81
2021/07/23 01:00:51;;;;;;;9.15;6.07;;;;;;;;;;1485603;39;20470;-81
2021/07/23 01:01:53;;;;;;;9.65;5.20;;;;;;;;;;1485823;39;20493;-81
2021/07/23 01:02:55;;;;;;;7.75;5.80;;;;;;;;;;1486097;39;20391;-80
2021/07/23 01:03:58;;;;;;;7.50;4.75;;;;;;;;;;1487716;39;20742;-82
2021/07/23 01:04:59;;;;;;;6.80;5.65;;;;;;;;;;1485766;39;20402;-82
2021/07/23 01:06:01;;;;;;;8.38;5.90;;;;;;;;;;1485164;39;20847;-81
2021/07/23 01:07:04;;;;;;;10.17;6.20;;;;;;;;;;1483550;40;20466;-81
2021/07/23 01:08:05;;;;;;;6.70;5.25;;;;;;;;;;1480658;40;20550;-82
2021/07/23 01:09:07;;;;;;;10.80;5.70;;;;;;;;;;1483426;39;20402;-81
2021/07/23 01:10:08;;;;;;;8.93;5.63;;;;;;;;;;1480635;40;20412;-83
2021/07/23 01:11:12;;;;;;;8.00;5.90;;;;;;;;;;1483730;39;20449;-80
2021/07/23 01:12:14;;;;;;;7.43;5.88;;;;;;;;;;1487245;39;20486;-80
2021/07/23 01:13:15;;;;;;;9.05;5.72;;;;;;;;;;1481443;40;20404;-80
2021/07/23 01:14:17;;;;;;;9.80;5.72;;;;;;;;;;1481357;40;20442;-82
2021/07/23 01:15:19;;;;;;;10.43;6.25;;;;;;;;;;1485373;39;20442;-81
2021/07/23 01:16:21;;;;;;;9.75;5.82;;;;;;;;;;1484847;40;20534;-83
2021/07/23 01:17:23;;;;;;;10.05;5.97;;;;;;;;;;1481410;40;20415;-83
2021/07/23 01:18:25;;;;;;;9.52;5.72;;;;;;;;;;1477025;40;20620;-82
2021/07/23 01:19:32;;;;;;;8.90;5.57;;;;;;;;;;1477555;40;20909;-83
2021/07/23 01:20:34;;;;;;;9.98;5.70;;;;;;;;;;1481482;40;20411;-81
2021/07/23 01:21:39;;;;;;;10.10;5.32;;;;;;;;;;1483413;40;20815;-82
2021/07/23 01:22:41;;;;;;;8.13;5.47;;;;;;;;;;1474232;40;20535;-82
2021/07/23 01:23:45;;;;;;;10.93;6.00;;;;;;;;;;1477617;40;20528;-81
2021/07/23 01:24:47;;;;;;;9.20;6.05;;;;;;;;;;1483976;40;20410;-80
2021/07/23 01:25:48;;;;;;;8.65;6.00;;;;;;;;;;1483626;40;20423;-82
2021/07/23 01:26:50;;;;;;;17.73;6.70;;;;;;;;;;1480224;40;20489;-80
2021/07/23 01:27:54;;;;;;;9.02;6.22;;;;;;;;;;1481800;40;20455;-83
2021/07/23 01:28:56;;;;;;;7.82;5.53;;;;;;;;;;1482658;40;20855;-80
2021/07/23 01:30:08;;;;;;;8.68;5.88;;;;;;;;;;1482284;40;20797;-81
2021/07/23 01:31:09;;;;;;;8.75;6.25;;;;;;;;;;1483486;40;21033;-82
2021/07/23 01:32:12;;;;;;;10.63;6.47;;;;;;;;;;1482525;40;20399;-83
2021/07/23 01:33:14;;;;;;;10.98;5.93;;;;;;;;;;1476255;40;20402;-82
2021/07/23 01:34:16;;;;;;;11.70;6.10;;;;;;;;;;1480051;40;20693;-82
2021/07/23 01:35:18;;;;;;;8.65;6.15;;;;;;;;;;1483856;39;20544;-82
2021/07/23 01:36:19;;;;;;;9.45;6.38;;;;;;;;;;1482899;40;20426;-83
2021/07/23 01:37:22;;;;;;;8.20;5.85;;;;;;;;;;1482117;40;20427;-83
2021/07/23 01:38:28;;;;;;;8.80;5.95;;;;;;;;;;1478648;40;20458;-83
2021/07/23 01:39:32;;;;;;;8.68;5.93;;;;;;;;;;1482737;40;20412;-83
2021/07/23 01:40:33;;;;;;;10.07;6.22;;;;;;;;;;1481737;40;20424;-79
2021/07/23 01:41:36;;;;;;;9.38;6.75;;;;;;;;;;1477141;40;20407;-80
2021/07/23 01:42:39;;;;;;;9.98;6.47;;;;;;;;;;1477888;40;20454;-81
2021/07/23 01:43:41;;;;;;;9.63;6.72;;;;;;;;;;1482189;40;20442;-80
2021/07/23 01:44:44;;;;;;;10.98;6.53;;;;;;;;;;1484389;40;21071;-80
2021/07/23 01:45:46;;;;;;;12.73;7.50;;;;;;;;;;1482539;40;20447;-82
2021/07/23 01:46:47;;;;;;;10.45;6.03;;;;;;;;;;1479072;40;20477;-80
2021/07/23 01:47:49;;;;;;;12.95;7.03;;;;;;;;;;1476680;40;20418;-80
2021/07/23 01:48:51;;;;;;;9.30;5.97;;;;;;;;;;1474401;40;20461;-80
2021/07/23 01:49:52;;;;;;;10.02;6.63;;;;;;;;;;1480755;40;21318;-81
2021/07/23 01:50:54;;;;;;;11.30;6.82;;;;;;;;;;1482592;40;20415;-82
2021/07/23 01:51:56;;;;;;;9.93;6.45;;;;;;;;;;1476113;40;20459;-80
2021/07/23 01:52:57;;;;;;;10.15;6.05;;;;;;;;;;1468683;40;20508;-81
2021/07/23 01:53:58;;;;;;;9.15;6.88;;;;;;;;;;1476958;40;20748;-82
2021/07/23 01:55:00;;;;;;;8.80;6.22;;;;;;;;;;1485618;40;20461;-80
2021/07/23 01:56:02;;;;;;;8.70;6.18;;;;;;;;;;1485138;40;20411;-82
2021/07/23 01:57:03;;;;;;;8.32;6.53;;;;;;;;;;1483026;40;20437;-82
2021/07/23 01:58:05;;;;;;;9.27;6.05;;;;;;;;;;1482557;40;20408;-81
2021/07/23 01:59:07;;;;;;;10.32;6.85;;;;;;;;;;1482542;40;20766;-81
2021/07/23 02:00:09;;;;;;;9.48;6.55;;;;;;;;;;1482184;40;20814;-82
2021/07/23 02:01:10;;;;;;;18.73;6.88;;;;;;;;;;1482694;40;20396;-82
2021/07/23 02:02:12;;;;;;;11.25;7.97;;;;;;;;;;1480023;40;20494;-82
2021/07/23 02:03:14;;;;;;;10.55;6.63;;;;;;;;;;1483532;40;20913;-82
2021/07/23 02:04:16;;;;;;;11.02;6.65;;;;;;;;;;1485663;40;21658;-82
2021/07/23 02:05:17;;;;;;;11.43;6.93;;;;;;;;;;1478917;40;20410;-82
2021/07/23 02:06:19;;;;;;;11.85;6.80;;;;;;;;;;1485186;40;20414;-81
2021/07/23 02:07:20;;;;;;;8.30;6.40;;;;;;;;;;1482250;40;20412;-83
2021/07/23 02:08:22;;;;;;;10.38;6.53;;;;;;;;;;1478080;40;20414;-83
2021/07/23 02:09:24;;;;;;;10.77;6.68;;;;;;;;;;1481889;40;20404;-83
2021/07/23 02:10:26;;;;;;;9.88;6.70;;;;;;;;;;1486082;40;20417;-84
2021/07/23 02:11:27;;;;;;;11.07;7.25;;;;;;;;;;1484617;40;20410;-82
2021/07/23 02:12:29;;;;;;;12.27;6.57;;;;;;;;;;1482429;40;20983;-80
2021/07/23 02:13:30;;;;;;;12.05;7.72;;;;;;;;;;1486863;40;20427;-82
2021/07/23 02:14:32;;;;;;;12.40;6.80;;;;;;;;;;1486343;40;20403;-82
2021/07/23 02:15:34;;;;;;;10.05;7.05;;;;;;;;;;1483588;39;20559;-83
2021/07/23 02:16:36;;;;;;;10.35;6.32;;;;;;;;;;1486297;39;20513;-83
2021/07/23 02:17:37;;;;;;;11.93;7.70;;;;;;;;;;1487127;39;20399;-82
2021/07/23 02:18:39;;;;;;;10.98;7.80;;;;;;;;;;1486877;39;20458;-83
2021/07/23 02:19:41;;;;;;;10.83;7.80;;;;;;;;;;1489060;39;20457;-83
2021/07/23 02:20:42;;;;;;;9.90;6.93;;;;;;;;;;1485973;40;20513;-80
2021/07/23 02:21:44;;;;;;;11.23;7.15;;;;;;;;;;1485698;39;20938;-82
2021/07/23 02:22:45;;;;;;;10.50;7.82;;;;;;;;;;1491076;39;20483;-83
2021/07/23 02:23:47;;;;;;;9.68;6.95;;;;;;;;;;1486070;39;20778;-81
2021/07/23 02:24:49;;;;;;;13.95;7.53;;;;;;;;;;1486205;39;20414;-82
2021/07/23 02:25:50;;;;;;;11.15;7.10;;;;;;;;;;1486106;40;20439;-82
2021/07/23 02:26:53;;;;;;;10.55;7.03;;;;;;;;;;1484824;40;20460;-81
2021/07/23 02:27:56;;;;;;;11.88;7.43;;;;;;;;;;1477963;40;20446;-82
2021/07/23 02:28:57;;;;;;;10.35;7.68;;;;;;;;;;1482252;40;20392;-82
2021/07/23 02:29:59;;;;;;;10.32;7.57;;;;;;;;;;1486194;39;20410;-82
2021/07/23 02:31:05;;;;;;;11.70;7.60;;;;;;;;;;1487120;39;20431;-80
2021/07/23 02:32:07;;;;;;;12.88;7.38;;;;;;;;;;1492695;39;20394;-81
2021/07/23 02:33:09;;;;;;;11.20;7.50;;;;;;;;;;1494695;39;20425;-82
2021/07/23 02:34:11;;;;;;;10.23;6.97;;;;;;;;;;1493534;39;20405;-81
2021/07/23 02:35:12;;;;;;;11.63;7.45;;;;;;;;;;1493866;39;20442;-82
2021/07/23 02:36:14;;;;;;;10.43;7.90;;;;;;;;;;1491693;39;20379;-82
2021/07/23 02:37:16;;;;;;;9.32;6.65;;;;;;;;;;1492318;39;20772;-82
2021/07/23 02:38:18;;;;;;;9.98;7.47;;;;;;;;;;1490367;39;20379;-81
2021/07/23 02:39:19;;;;;;;11.25;7.38;;;;;;;;;;1487853;39;20421;-82
2021/07/23 02:40:21;;;;;;;12.40;8.02;;;;;;;;;;1484153;40;20814;-81
2021/07/23 02:41:23;;;;;;;10.98;7.00;;;;;;;;;;1486497;39;20427;-82
2021/07/23 02:42:24;;;;;;;12.63;7.65;;;;;;;;;;1484558;40;20788;-82
2021/07/23 02:43:26;;;;;;;11.05;7.68;;;;;;;;;;1488752;39;20402;-82
2021/07/23 02:44:27;;;;;;;11.88;8.18;;;;;;;;;;1489349;39;20407;-82
2021/07/23 02:45:29;;;;;;;10.23;7.18;;;;;;;;;;1490402;39;20444;-82
2021/07/23 02:46:31;;;;;;;10.27;6.88;;;;;;;;;;1490260;39;20393;-81
2021/07/23 02:47:32;;;;;;;9.73;7.30;;;;;;;;;;1488219;39;20439;-80
2021/07/23 02:48:34;;;;;;;9.30;6.55;;;;;;;;;;1486581;39;20423;-80
2021/07/23 02:49:36;;;;;;;10.23;6.88;;;;;;;;;;1486065;39;20772;-80
2021/07/23 02:50:37;;;;;;;13.85;7.30;;;;;;;;;;1489622;39;20740;-79
2021/07/23 02:51:39;;;;;;;9.48;6.75;;;;;;;;;;1485872;39;20387;-80
2021/07/23 02:52:40;;;;;;;10.48;6.93;;;;;;;;;;1486183;39;20413;-79
2021/07/23 02:53:42;;;;;;;10.75;7.60;;;;;;;;;;1486659;39;20391;-80
2021/07/23 02:54:43;;;;;;;14.68;7.25;;;;;;;;;;1488601;39;20500;-79
2021/07/23 02:55:45;;;;;;;12.52;7.60;;;;;;;;;;1489246;39;20464;-80
2021/07/23 02:56:46;;;;;;;11.18;7.25;;;;;;;;;;1484493;40;20454;-80
2021/07/23 02:57:48;;;;;;;8.40;6.47;;;;;;;;;;1481447;40;20472;-80
2021/07/23 02:58:50;;;;;;;9.00;6.75;;;;;;;;;;1482029;39;20526;-81
2021/07/23 02:59:51;;;;;;;9.10;6.75;;;;;;;;;;1486177;39;20485;-80
2021/07/23 03:00:53;;;;;;;10.20;6.40;;;;;;;;;;1485437;40;20685;-80
2021/07/23 03:01:55;;;;;;;10.65;7.18;;;;;;;;;;1485645;40;20500;-80
2021/07/23 03:02:57;;;;;;;10.15;6.88;;;;;;;;;;1477659;40;20446;-79
2021/07/23 03:03:59;;;;;;;8.02;6.15;;;;;;;;;;1477789;40;20641;-79
2021/07/23 03:05:00;;;;;;;9.13;6.53;;;;;;;;;;1486426;39;20489;-78
2021/07/23 03:06:02;;;;;;;12.02;6.57;;;;;;;;;;1488934;39;20449;-78
2021/07/23 03:07:03;;;;;;;8.50;6.47;;;;;;;;;;1484644;39;20407;-77
2021/07/23 03:08:06;;;;;;;6.50;5.38;;;;;;;;;;1489337;39;20404;-77
2021/07/23 03:09:07;;;;;;;8.75;6.60;;;;;;;;;;1481380;40;20434;-78
2021/07/23 03:10:09;;;;;;;8.13;6.28;;;;;;;;;;1481523;39;20411;-80
2021/07/23 03:11:11;;;;;;;7.75;6.15;;;;;;;;;;1487857;39;20435;-82
2021/07/23 03:12:14;;;;;;;9.55;6.07;;;;;;;;;;1486016;39;20415;-79
2021/07/23 03:13:15;;;;;;;9.48;6.72;;;;;;;;;;1486016;39;20451;-79
2021/07/23 03:14:17;;;;;;;8.35;6.80;;;;;;;;;;1481855;40;20811;-79
2021/07/23 03:15:19;;;;;;;9.48;6.20;;;;;;;;;;1489039;39;20417;-80
2021/07/23 03:16:20;;;;;;;8.60;6.28;;;;;;;;;;1493425;39;20419;-80
2021/07/23 03:17:22;;;;;;;7.18;5.75;;;;;;;;;;1482445;40;20464;-80
2021/07/23 03:18:23;;;;;;;8.33;5.37;;;;;;;;;;1480615;40;20906;-80
2021/07/23 03:19:25;;;;;;;7.40;5.82;;;;;;;;;;1485846;39;20391;-81
2021/07/23 03:20:27;;;;;;;7.50;5.80;;;;;;;;;;1483758;39;20457;-82
2021/07/23 03:21:28;;;;;;;12.90;6.50;;;;;;;;;;1481869;39;20393;-81
2021/07/23 03:22:30;;;;;;;8.35;6.22;;;;;;;;;;1486119;39;20426;-79
2021/07/23 03:23:32;;;;;;;8.95;6.28;;;;;;;;;;1488353;39;20448;-81
2021/07/23 03:24:34;;;;;;;8.50;6.25;;;;;;;;;;1484002;39;20809;-78
2021/07/23 03:25:36;;;;;;;10.02;5.93;;;;;;;;;;1486287;39;20411;-80
2021/07/23 03:26:37;;;;;;;8.45;6.70;;;;;;;;;;1490293;39;20838;-79
2021/07/23 03:27:39;;;;;;;8.35;5.82;;;;;;;;;;1491666;39;20976;-78
2021/07/23 03:28:41;;;;;;;11.13;6.07;;;;;;;;;;1493392;39;20414;-80
2021/07/23 03:29:42;;;;;;;7.63;5.97;;;;;;;;;;1486305;39;20417;-78
2021/07/23 03:30:44;;;;;;;10.82;6.50;;;;;;;;;;1485401;40;20443;-79
2021/07/23 03:31:45;;;;;;;8.88;5.63;;;;;;;;;;1481509;40;20445;-80
2021/07/23 03:32:47;;;;;;;11.82;6.45;;;;;;;;;;1481869;40;20409;-80
2021/07/23 03:33:50;;;;;;;7.68;6.15;;;;;;;;;;1483030;39;20843;-78
2021/07/23 03:34:52;;;;;;;10.45;6.63;;;;;;;;;;1488224;39;20514;-80
2021/07/23 03:35:53;;;;;;;9.98;6.25;;;;;;;;;;1483812;40;20950;-81
2021/07/23 03:36:55;;;;;;;8.55;6.20;;;;;;;;;;1480520;40;20422;-78
2021/07/23 03:37:56;;;;;;;8.57;6.28;;;;;;;;;;1489719;39;20424;-79
2021/07/23 03:38:58;;;;;;;8.38;6.30;;;;;;;;;;1489685;39;20575;-80
2021/07/23 03:39:59;;;;;;;10.75;6.03;;;;;;;;;;1489550;39;20441;-79
2021/07/23 03:41:01;;;;;;;10.18;6.60;;;;;;;;;;1489822;39;20463;-81
2021/07/23 03:42:02;;;;;;;10.60;6.13;;;;;;;;;;1485567;39;20442;-80
2021/07/23 03:43:04;;;;;;;9.50;6.13;;;;;;;;;;1489784;39;20413;-78
2021/07/23 03:44:05;;;;;;;6.85;6.00;;;;;;;;;;1494111;39;20900;-78
2021/07/23 03:45:07;;;;;;;9.30;6.10;;;;;;;;;;1489518;39;20397;-80
2021/07/23 03:46:09;;;;;;;8.27;5.73;;;;;;;;;;1485780;40;20428;-82
2021/07/23 03:47:11;;;;;;;8.55;5.93;;;;;;;;;;1484378;39;20431;-79
2021/07/23 03:48:12;;;;;;;8.10;6.47;;;;;;;;;;1485579;39;20439;-79
2021/07/23 03:49:14;;;;;;;8.75;6.20;;;;;;;;;;1485572;39;20415;-80
2021/07/23 03:50:15;;;;;;;9.02;6.90;;;;;;;;;;1481469;39;20524;-78
2021/07/23 03:51:17;;;;;;;10.52;7.13;;;;;;;;;;1481962;39;20503;-80
2021/07/23 03:52:18;;;;;;;9.43;6.57;;;;;;;;;;1490394;39;20506;-81
2021/07/23 03:53:20;;;;;;;8.77;6.60;;;;;;;;;;1490189;39;20421;-80
2021/07/23 03:54:22;;;;;;;10.43;7.15;;;;;;;;;;1490655;39;20463;-80
2021/07/23 03:55:24;;;;;;;8.30;6.57;;;;;;;;;;1494350;39;20491;-80
2021/07/23 03:56:26;;;;;;;7.53;6.32;;;;;;;;;;1489018;39;20483;-81
2021/07/23 03:57:27;;;;;;;9.82;6.70;;;;;;;;;;1485869;39;20414;-81
2021/07/23 03:58:29;;;;;;;7.32;6.63;;;;;;;;;;1483852;39;20406;-81
2021/07/23 03:59:32;;;;;;;16.55;7.03;;;;;;;;;;1481085;40;20802;-80
2021/07/23 04:00:34;;;;;;;9.10;6.70;;;;;;;;;;1480171;40;20422;-80
2021/07/23 04:01:39;;;;;;;10.02;6.63;;;;;;;;;;1489535;39;20459;-78
2021/07/23 04:02:41;;;;;;;8.90;6.50;;;;;;;;;;1494793;39;20402;-81
2021/07/23 04:03:42;;;;;;;9.07;6.65;;;;;;;;;;1492860;39;21399;-81
2021/07/23 04:04:44;;;;;;;8.20;6.30;;;;;;;;;;1493487;39;20394;-81
2021/07/23 04:05:46;;;;;;;9.50;7.60;;;;;;;;;;1494573;39;20492;-80
2021/07/23 04:06:47;;;;;;;12.50;7.78;;;;;;;;;;1489708;39;20408;-81
2021/07/23 04:07:49;;;;;;;9.88;7.10;;;;;;;;;;1489277;39;20481;-80
2021/07/23 04:08:51;;;;;;;10.68;7.75;;;;;;;;;;1490707;39;20437;-80
2021/07/23 04:09:52;;;;;;;12.50;7.63;;;;;;;;;;1493947;39;20463;-80
2021/07/23 04:10:56;;;;;;;11.05;7.78;;;;;;;;;;1494837;39;20430;-79
2021/07/23 04:11:58;;;;;;;9.18;7.38;;;;;;;;;;1491848;39;20787;-80
2021/07/23 04:12:59;;;;;;;9.85;7.45;;;;;;;;;;1492460;39;20443;-79
2021/07/23 04:14:01;;;;;;;11.27;7.88;;;;;;;;;;1494190;39;20427;-79
2021/07/23 04:15:06;;;;;;;10.20;7.07;;;;;;;;;;1489590;39;20487;-79
2021/07/23 04:16:08;;;;;;;9.65;7.30;;;;;;;;;;1481841;39;20444;-79
2021/07/23 04:17:09;;;;;;;12.07;7.72;;;;;;;;;;1481223;39;21676;-81
2021/07/23 04:18:11;;;;;;;8.65;6.90;;;;;;;;;;1490368;39;20397;-79
2021/07/23 04:19:13;;;;;;;11.07;8.38;;;;;;;;;;1490476;39;20521;-79
2021/07/23 04:20:15;;;;;;;11.13;7.95;;;;;;;;;;1493257;39;20483;-79
2021/07/23 04:21:17;;;;;;;12.07;7.80;;;;;;;;;;1494369;39;20414;-80
2021/07/23 04:22:19;;;;;;;10.70;7.70;;;;;;;;;;1489641;39;20491;-78
2021/07/23 04:23:20;;;;;;;12.05;7.97;;;;;;;;;;1489600;39;20741;-81
2021/07/23 04:24:23;;;;;;;12.50;7.95;;;;;;;;;;1489820;39;20437;-79
2021/07/23 04:25:24;;;;;;;11.60;8.27;;;;;;;;;;1490409;39;20515;-77
2021/07/23 04:26:26;;;;;;;11.73;8.38;;;;;;;;;;1485750;39;20809;-79
2021/07/23 04:27:28;;;;;;;9.52;7.15;;;;;;;;;;1486193;39;20896;-79
2021/07/23 04:28:29;;;;;;;9.68;7.80;;;;;;;;;;1489589;39;20416;-80
2021/07/23 04:29:31;;;;;;;11.98;8.23;;;;;;;;;;1489285;39;20837;-82
2021/07/23 04:30:33;;;;;;;10.45;7.50;;;;;;;;;;1485340;39;20836;-79
2021/07/23 04:31:35;;;;;;;13.45;8.00;;;;;;;;;;1485887;39;20433;-78
2021/07/23 04:32:36;;;;;;;9.80;8.10;;;;;;;;;;1485509;39;20403;-78
2021/07/23 04:33:38;;;;;;;11.25;8.10;;;;;;;;;;1485654;39;20446;-79
2021/07/23 04:34:48;;;;;;;10.27;8.07;;;;;;;;;;1488684;39;20421;-77
2021/07/23 04:35:50;;;;;;;11.23;8.25;;;;;;;;;;1482005;40;20450;-78
2021/07/23 04:36:51;;;;;;;12.05;8.15;;;;;;;;;;1485518;39;20500;-79
2021/07/23 04:37:53;;;;;;;11.20;7.05;;;;;;;;;;1485780;39;20435;-79
2021/07/23 04:38:55;;;;;;;12.43;8.40;;;;;;;;;;1483632;39;20403;-80
2021/07/23 04:39:56;;;;;;;10.85;7.68;;;;;;;;;;1489972;39;20480;-80
2021/07/23 04:40:58;;;;;;;10.30;7.80;;;;;;;;;;1489890;39;20405;-78
2021/07/23 04:41:59;;;;;;;10.30;7.85;;;;;;;;;;1487785;39;20399;-79
2021/07/23 04:43:01;;;;;;;11.73;8.30;;;;;;;;;;1493715;39;20404;-80
2021/07/23 04:44:02;;;;;;;12.13;7.70;;;;;;;;;;1487303;39;20430;-80
2021/07/23 04:45:05;;;;;;;12.23;7.88;;;;;;;;;;1488550;39;20457;-78
2021/07/23 04:46:08;;;;;;;12.73;7.50;;;;;;;;;;1493581;39;20391;-80
2021/07/23 04:47:09;;;;;;;9.23;7.47;;;;;;;;;;1493615;39;20396;-80
2021/07/23 04:48:11;;;;;;;9.88;6.75;;;;;;;;;;1485706;39;20501;-79
2021/07/23 04:49:12;;;;;;;10.52;6.80;;;;;;;;;;1481379;40;20412;-79
2021/07/23 04:50:14;;;;;;;11.13;7.77;;;;;;;;;;1487860;39;20398;-80
2021/07/23 04:51:15;;;;;;;8.68;6.80;;;;;;;;;;1489599;39;20841;-81
2021/07/23 04:52:17;;;;;;;10.43;7.32;;;;;;;;;;1485978;39;20399;-78
2021/07/23 04:53:19;;;;;;;9.68;7.20;;;;;;;;;;1487311;39;20461;-80
2021/07/23 04:54:20;;;;;;;8.15;6.80;;;;;;;;;;1494222;39;20410;-78
2021/07/23 04:55:23;;;;;;;11.70;7.75;;;;;;;;;;1487467;39;20940;-80
2021/07/23 04:56:24;;;;;;;9.25;6.80;;;;;;;;;;1488467;39;20401;-80
2021/07/23 04:57:29;;;;;;;13.15;7.72;;;;;;;;;;1491494;39;20397;-81
2021/07/23 04:58:31;;;;;;;10.38;7.35;;;;;;;;;;1489674;39;20615;-82
2021/07/23 04:59:33;;;;;;;10.63;7.55;;;;;;;;;;1489708;39;21010;-81
2021/07/23 05:00:34;;;;;;;11.88;7.60;;;;;;;;;;1493629;39;20404;-79
2021/07/23 05:01:36;;;;;;;8.73;6.68;;;;;;;;;;1485363;39;20446;-79
2021/07/23 05:02:41;;;;;;;9.35;6.80;;;;;;;;;;1484080;39;20392;-79
2021/07/23 05:03:43;;;;;;;14.48;7.75;;;;;;;;;;1485922;39;20504;-80
2021/07/23 05:04:45;;;;;;;8.48;6.53;;;;;;;;;;1485698;39;20771;-80
2021/07/23 05:05:47;;;;;;;8.25;5.95;;;;;;;;;;1483219;39;20464;-82
2021/07/23 05:06:49;;;;;;;7.55;6.68;;;;;;;;;;1487492;40;20616;-80
2021/07/23 05:07:51;;;;;;;8.52;5.72;;;;;;;;;;1494051;39;20413;-80
2021/07/23 05:08:52;;;;;;;10.38;6.10;;;;;;;;;;1498125;39;20413;-80
2021/07/23 05:09:54;;;;;;;10.80;6.53;;;;;;;;;;1497668;39;20525;-78
2021/07/23 05:10:55;;;;;;;6.95;5.90;;;;;;;;;;1494533;39;20412;-79
2021/07/23 05:11:58;;;;;;;10.00;5.78;;;;;;;;;;1488448;39;20426;-79
2021/07/23 05:12:59;;;;;;;12.00;6.90;;;;;;;;;;1492908;39;20446;-79
2021/07/23 05:14:01;;;;;;;8.97;5.83;;;;;;;;;;1486598;40;20613;-78
2021/07/23 05:15:06;;;;;;;8.95;6.43;;;;;;;;;;1486821;39;20472;-79
2021/07/23 05:16:09;;;;;;;8.13;5.60;;;;;;;;;;1490845;39;20875;-78
2021/07/23 05:17:11;;;;;;;7.57;5.50;;;;;;;;;;1491065;39;20393;-79
2021/07/23 05:18:13;;;;;;;6.70;5.72;;;;;;;;;;1492480;39;20423;-79
2021/07/23 05:19:16;;;;;;;8.73;5.85;;;;;;;;;;1490753;39;20534;-81
2021/07/23 05:20:17;;;;;;;12.82;6.85;;;;;;;;;;1486026;39;21357;-79
2021/07/23 05:21:19;;;;;;;8.55;6.13;;;;;;;;;;1486324;39;20426;-79
2021/07/23 05:22:21;;;;;;;7.97;5.63;;;;;;;;;;1487713;39;20406;-79
2021/07/23 05:23:23;;;;;;;5.95;5.07;;;;;;;;;;1481843;39;20526;-80
2021/07/23 05:24:24;;;;;;;8.23;5.88;;;;;;;;;;1477609;40;20411;-81
2021/07/23 05:25:26;;;;;;;7.68;5.88;;;;;;;;;;1483892;39;20431;-81
2021/07/23 05:26:27;;;;;;;6.25;5.15;;;;;;;;;;1492569;39;20392;-80
2021/07/23 05:27:30;;;;;;;5.95;5.20;;;;;;;;;;1490199;39;20429;-80
2021/07/23 05:28:32;;;;;;;9.05;5.72;;;;;;;;;;1493443;39;20441;-83
2021/07/23 05:29:41;;;;;;;8.65;5.60;;;;;;;;;;1485761;40;20845;-81
2021/07/23 05:30:42;;;;;;;7.72;5.47;;;;;;;;;;1486256;39;20479;-82
2021/07/23 05:31:44;;;;;;;6.18;5.05;;;;;;;;;;1491223;39;20417;-83
2021/07/23 05:32:46;;;;;;;6.10;5.05;;;;;;;;;;1490721;39;20774;-82
2021/07/23 05:33:47;;;;;;;8.55;4.78;;;;;;;;;;1488234;39;20821;-82
2021/07/23 05:34:49;;;;;;;6.47;5.45;;;;;;;;;;1486661;39;20447;-82
2021/07/23 05:35:51;;;;;;;7.90;4.82;;;;;;;;;;1488911;39;20422;-83
2021/07/23 05:36:52;;;;;;;6.65;4.75;;;;;;;;;;1488178;39;20938;-81
2021/07/23 05:37:54;;;;;;;5.75;5.15;;;;;;;;;;1489681;39;20482;-82
2021/07/23 05:38:55;;;;;;;8.38;5.22;;;;;;;;;;1485837;40;20479;-82
2021/07/23 05:39:57;;;;;;;6.13;4.47;;;;;;;;;;1481985;40;20402;-83
2021/07/23 05:41:09;;;;;;;6.82;4.88;;;;;;;;;;1488728;39;20415;-83
2021/07/23 05:42:11;;;;;;;6.82;4.88;;;;;;;;;;1490704;39;20841;-82
2021/07/23 05:43:13;;;;;;;7.57;4.80;;;;;;;;;;1488384;39;20526;-81
2021/07/23 05:44:14;;;;;;;6.18;4.40;;;;;;;;;;1476281;40;20511;-82
2021/07/23 05:45:16;;;;;;;6.57;5.30;;;;;;;;;;1476642;40;20394;-83
2021/07/23 05:46:18;;;;;;;6.50;4.93;;;;;;;;;;1484553;39;20415;-82
2021/07/23 05:47:19;;;;;;;11.70;5.00;;;;;;;;;;1481415;40;20421;-82
2021/07/23 05:48:21;;;;;;;8.07;5.05;;;;;;;;;;1480119;40;20979;-82
2021/07/23 05:49:23;;;;;;;6.25;5.03;;;;;;;;;;1482261;39;20392;-82
2021/07/23 05:50:25;;;;;;;7.45;4.93;;;;;;;;;;1484304;39;20714;-82
2021/07/23 05:51:26;;;;;;;6.28;4.57;;;;;;;;;;1488588;39;20496;-82
2021/07/23 05:52:28;;;;;;;6.28;4.80;;;;;;;;;;1493084;39;20485;-83
2021/07/23 05:53:30;;;;;;;10.00;4.43;;;;;;;;;;1487328;39;20412;-84
2021/07/23 05:54:32;;;;;;;4.97;4.47;;;;;;;;;;1484790;40;20537;-84
2021/07/23 05:55:34;;;;;;;6.05;4.68;;;;;;;;;;1479755;40;20404;-83
2021/07/23 05:56:35;;;;;;;6.88;4.40;;;;;;;;;;1478954;40;20391;-83
2021/07/23 05:57:37;;;;;;;7.82;5.00;;;;;;;;;;1484394;39;20411;-83
2021/07/23 05:58:38;;;;;;;6.37;5.00;;;;;;;;;;1485924;39;20394;-83
2021/07/23 05:59:40;;;;;;;6.90;4.72;;;;;;;;;;1481622;40;20511;-81
2021/07/23 06:00:41;;;;;;;6.88;5.18;;;;;;;;;;1482039;39;20408;-81
2021/07/23 06:01:43;;;;;;;8.52;4.90;;;;;;;;;;1486264;39;20687;-81
2021/07/23 06:02:45;;;;;;;5.60;4.95;;;;;;;;;;1486346;39;20439;-83
2021/07/23 06:03:47;;;;;;;6.63;5.45;;;;;;;;;;1490718;39;20412;-81
2021/07/23 06:04:48;;;;;;;7.88;4.90;;;;;;;;;;1490638;39;20424;-82
2021/07/23 06:05:51;;;;;;;9.23;5.30;;;;;;;;;;1488345;39;20630;-82
2021/07/23 06:06:53;;;;;;;9.43;5.13;;;;;;;;;;1485190;39;20395;-83
2021/07/23 06:07:54;;;;;;;9.65;4.82;;;;;;;;;;1479608;39;20469;-83
2021/07/23 06:08:57;;;;;;;8.02;5.28;;;;;;;;;;1482882;40;20404;-83
2021/07/23 06:09:58;;;;;;;7.50;5.18;;;;;;;;;;1479437;40;20477;-82